createdAt,value
2018-03-04T00:00:41.740Z,0
2018-03-04T00:01:43.119Z,0
2018-03-04T00:02:44.500Z,0
2018-03-04T00:03:45.885Z,0
2018-03-04T00:04:47.268Z,0
2018-03-04T00:05:48.649Z,0
2018-03-04T00:06:50.053Z,0
2018-03-04T00:07:51.435Z,0
2018-03-04T00:08:52.815Z,0
2018-03-04T00:09:54.199Z,0
2018-03-04T00:10:55.587Z,0
2018-03-04T00:11:56.966Z,0
2018-03-04T00:12:58.346Z,0
2018-03-04T00:13:59.729Z,0
2018-03-04T00:15:01.347Z,0
2018-03-04T00:16:02.716Z,0
2018-03-04T00:17:04.097Z,0
2018-03-04T00:18:05.481Z,0
2018-03-04T00:19:06.856Z,0
2018-03-04T00:20:08.238Z,0
2018-03-04T00:21:09.628Z,0
2018-03-04T00:22:11.010Z,0
2018-03-04T00:23:12.390Z,0
2018-03-04T00:24:13.770Z,0
2018-03-04T00:25:15.149Z,0
2018-03-04T00:26:16.533Z,0
2018-03-04T00:27:18.004Z,0
2018-03-04T00:28:19.464Z,0
2018-03-04T00:29:20.843Z,0
2018-03-04T00:30:22.226Z,0
2018-03-04T00:31:23.607Z,0
2018-03-04T00:32:24.988Z,0
2018-03-04T00:33:26.369Z,0
2018-03-04T00:34:27.751Z,0
2018-03-04T00:35:29.133Z,0
2018-03-04T00:36:30.516Z,0
2018-03-04T00:37:31.900Z,0
2018-03-04T00:38:33.279Z,0
2018-03-04T00:39:34.663Z,0
2018-03-04T00:40:36.051Z,0
2018-03-04T00:41:37.431Z,0
2018-03-04T00:42:38.816Z,0
2018-03-04T00:43:40.198Z,0
2018-03-04T00:44:41.577Z,0
2018-03-04T00:45:42.960Z,0
2018-03-04T00:46:44.344Z,0
2018-03-04T00:47:45.721Z,0
2018-03-04T00:48:47.103Z,0
2018-03-04T00:49:48.487Z,0
2018-03-04T00:50:49.867Z,0
2018-03-04T00:51:51.247Z,0
2018-03-04T00:52:52.628Z,0
2018-03-04T00:53:54.012Z,0
2018-03-04T00:54:55.395Z,0
2018-03-04T00:55:56.776Z,0
2018-03-04T00:56:58.157Z,0
2018-03-04T00:57:59.539Z,0
2018-03-04T00:59:00.919Z,0
2018-03-04T01:00:02.298Z,0
2018-03-04T01:01:03.686Z,0
2018-03-04T01:02:05.071Z,0
2018-03-04T01:03:06.452Z,0
2018-03-04T01:04:07.832Z,0
2018-03-04T01:05:09.210Z,0
2018-03-04T01:06:10.589Z,0
2018-03-04T01:07:11.968Z,0
2018-03-04T01:08:13.352Z,0
2018-03-04T01:09:14.737Z,0
2018-03-04T01:10:16.116Z,0
2018-03-04T01:11:17.501Z,0
2018-03-04T01:12:18.884Z,0
2018-03-04T01:13:20.267Z,0
2018-03-04T01:14:21.648Z,0
2018-03-04T01:15:23.027Z,0
2018-03-04T01:16:24.411Z,0
2018-03-04T01:17:25.795Z,0
2018-03-04T01:18:27.178Z,0
2018-03-04T01:19:28.611Z,0
2018-03-04T01:20:30.086Z,0
2018-03-04T01:21:31.467Z,0
2018-03-04T01:22:32.847Z,0
2018-03-04T01:23:34.230Z,0
2018-03-04T01:24:35.616Z,0
2018-03-04T01:25:37.000Z,0
2018-03-04T01:26:38.392Z,0
2018-03-04T01:27:39.774Z,0
2018-03-04T01:28:41.154Z,0
2018-03-04T01:29:42.536Z,0
2018-03-04T01:30:43.918Z,0
2018-03-04T01:31:45.302Z,0
2018-03-04T01:32:46.683Z,0
2018-03-04T01:33:48.064Z,0
2018-03-04T01:34:49.442Z,0
2018-03-04T01:35:50.825Z,0
2018-03-04T01:36:52.210Z,0
2018-03-04T01:37:53.591Z,0
2018-03-04T01:38:54.973Z,0
2018-03-04T01:39:56.356Z,0
2018-03-04T01:40:57.735Z,0
2018-03-04T01:41:59.117Z,0
2018-03-04T01:43:00.498Z,0
2018-03-04T01:44:01.881Z,0
2018-03-04T01:45:03.264Z,0
2018-03-04T01:46:04.656Z,0
2018-03-04T01:47:06.041Z,0
2018-03-04T01:48:07.421Z,0
2018-03-04T01:49:08.801Z,0
2018-03-04T01:50:10.194Z,0
2018-03-04T01:51:11.599Z,0
2018-03-04T01:52:12.982Z,0
2018-03-04T01:53:14.367Z,0
2018-03-04T01:54:15.747Z,0
2018-03-04T01:55:17.128Z,0
2018-03-04T01:56:18.514Z,0
2018-03-04T01:57:19.917Z,0
2018-03-04T01:58:21.296Z,0
2018-03-04T01:59:22.673Z,0
2018-03-04T02:00:24.054Z,0
2018-03-04T02:01:25.440Z,0
2018-03-04T02:02:26.831Z,0
2018-03-04T02:03:28.216Z,0
2018-03-04T02:04:29.602Z,0
2018-03-04T02:05:30.980Z,0
2018-03-04T02:06:32.363Z,0
2018-03-04T02:07:33.743Z,0
2018-03-04T02:08:35.130Z,0
2018-03-04T02:09:36.507Z,0
2018-03-04T02:10:37.890Z,0
2018-03-04T02:11:39.318Z,0
2018-03-04T02:12:40.726Z,0
2018-03-04T02:13:42.110Z,0
2018-03-04T02:14:43.494Z,0
2018-03-04T02:15:44.875Z,0
2018-03-04T02:16:46.256Z,0
2018-03-04T02:17:47.636Z,0
2018-03-04T02:18:49.014Z,0
2018-03-04T02:19:50.397Z,0
2018-03-04T02:20:51.777Z,0
2018-03-04T02:21:53.160Z,0
2018-03-04T02:22:54.554Z,0
2018-03-04T02:23:55.932Z,0
2018-03-04T02:24:57.314Z,0
2018-03-04T02:25:58.696Z,0
2018-03-04T02:27:00.079Z,0
2018-03-04T02:28:01.463Z,0
2018-03-04T02:29:02.846Z,0
2018-03-04T02:30:04.244Z,0
2018-03-04T02:31:05.622Z,0
2018-03-04T02:32:06.997Z,0
2018-03-04T02:33:08.379Z,0
2018-03-04T02:34:09.759Z,0
2018-03-04T02:35:11.144Z,0
2018-03-04T02:36:12.528Z,0
2018-03-04T02:37:13.917Z,0
2018-03-04T02:38:15.295Z,0
2018-03-04T02:39:16.672Z,0
2018-03-04T02:40:18.056Z,0
2018-03-04T02:41:19.440Z,0
2018-03-04T02:42:20.824Z,0
2018-03-04T02:43:22.205Z,0
2018-03-04T02:44:23.587Z,0
2018-03-04T02:45:24.975Z,0
2018-03-04T02:46:26.346Z,0
2018-03-04T02:47:27.729Z,0
2018-03-04T02:48:29.108Z,0
2018-03-04T02:49:30.488Z,0
2018-03-04T02:50:31.870Z,0
2018-03-04T02:51:33.252Z,0
2018-03-04T02:52:34.644Z,0
2018-03-04T02:53:36.031Z,0
2018-03-04T02:54:37.414Z,0
2018-03-04T02:55:38.789Z,0
2018-03-04T02:56:40.168Z,0
2018-03-04T02:57:41.552Z,0
2018-03-04T02:58:42.935Z,0
2018-03-04T02:59:44.317Z,0
2018-03-04T03:00:45.700Z,0
2018-03-04T03:01:47.079Z,0
2018-03-04T03:02:48.460Z,0
2018-03-04T03:03:49.955Z,0
2018-03-04T03:04:51.359Z,0
2018-03-04T03:05:52.747Z,0
2018-03-04T03:06:54.132Z,0
2018-03-04T03:07:55.520Z,0
2018-03-04T03:08:56.896Z,0
2018-03-04T03:09:58.277Z,0
2018-03-04T03:10:59.660Z,0
2018-03-04T03:12:01.039Z,0
2018-03-04T03:13:02.428Z,0
2018-03-04T03:14:03.808Z,0
2018-03-04T03:15:05.191Z,0
2018-03-04T03:16:06.571Z,0
2018-03-04T03:17:07.955Z,0
2018-03-04T03:18:09.337Z,0
2018-03-04T03:19:10.720Z,0
2018-03-04T03:20:12.104Z,0
2018-03-04T03:21:13.485Z,0
2018-03-04T03:22:14.866Z,0
2018-03-04T03:23:16.253Z,0
2018-03-04T03:24:17.635Z,0
2018-03-04T03:25:19.022Z,0
2018-03-04T03:26:20.404Z,0
2018-03-04T03:27:21.792Z,0
2018-03-04T03:28:23.171Z,0
2018-03-04T03:29:24.549Z,0
2018-03-04T03:30:25.932Z,0
2018-03-04T03:31:27.313Z,0
2018-03-04T03:32:28.696Z,0
2018-03-04T03:33:30.078Z,0
2018-03-04T03:34:31.459Z,0
2018-03-04T03:35:32.836Z,0
2018-03-04T03:36:34.218Z,0
2018-03-04T03:37:35.604Z,0
2018-03-04T03:38:36.983Z,0
2018-03-04T03:39:38.363Z,0
2018-03-04T03:40:39.747Z,0
2018-03-04T03:41:41.133Z,0
2018-03-04T03:42:42.513Z,0
2018-03-04T03:43:43.892Z,0
2018-03-04T03:44:45.271Z,0
2018-03-04T03:45:46.645Z,0
2018-03-04T03:46:48.041Z,0
2018-03-04T03:47:49.430Z,0
2018-03-04T03:48:50.812Z,0
2018-03-04T03:49:52.193Z,0
2018-03-04T03:50:53.573Z,0
2018-03-04T03:51:54.957Z,0
2018-03-04T03:52:56.331Z,0
2018-03-04T03:53:57.720Z,0
2018-03-04T03:54:59.094Z,0
2018-03-04T03:56:00.578Z,0
2018-03-04T03:57:01.972Z,0
2018-03-04T03:58:03.357Z,0
2018-03-04T03:59:04.750Z,0
2018-03-04T04:00:06.134Z,0
2018-03-04T04:01:07.515Z,0
2018-03-04T04:02:08.894Z,0
2018-03-04T04:03:10.279Z,0
2018-03-04T04:04:11.660Z,0
2018-03-04T04:05:13.040Z,0
2018-03-04T04:06:14.420Z,0
2018-03-04T04:07:15.806Z,0
2018-03-04T04:08:17.191Z,0
2018-03-04T04:09:18.572Z,0
2018-03-04T04:10:19.957Z,0
2018-03-04T04:11:21.336Z,0
2018-03-04T04:12:22.715Z,0
2018-03-04T04:13:24.101Z,0
2018-03-04T04:14:25.489Z,0
2018-03-04T04:15:26.864Z,0
2018-03-04T04:16:28.248Z,0
2018-03-04T04:17:29.629Z,0
2018-03-04T04:18:31.014Z,0
2018-03-04T04:19:32.392Z,0
2018-03-04T04:20:33.775Z,0
2018-03-04T04:21:35.160Z,0
2018-03-04T04:22:36.538Z,0
2018-03-04T04:23:37.922Z,0
2018-03-04T04:24:39.305Z,0
2018-03-04T04:25:40.687Z,0
2018-03-04T04:26:42.064Z,0
2018-03-04T04:27:43.447Z,0
2018-03-04T04:28:44.836Z,0
2018-03-04T04:29:46.210Z,0
2018-03-04T04:30:47.594Z,0
2018-03-04T04:31:48.989Z,0
2018-03-04T04:32:50.359Z,0
2018-03-04T04:33:51.740Z,0
2018-03-04T04:34:53.123Z,0
2018-03-04T04:35:54.526Z,0
2018-03-04T04:36:55.909Z,0
2018-03-04T04:37:57.288Z,0
2018-03-04T04:38:58.671Z,0
2018-03-04T04:40:00.054Z,0
2018-03-04T04:41:01.436Z,0
2018-03-04T04:42:02.818Z,0
2018-03-04T04:43:04.200Z,0
2018-03-04T04:44:05.586Z,0
2018-03-04T04:45:06.966Z,0
2018-03-04T04:46:08.349Z,0
2018-03-04T04:47:09.841Z,0
2018-03-04T04:48:11.164Z,0
2018-03-04T04:49:12.562Z,0
2018-03-04T04:50:13.942Z,0
2018-03-04T04:51:15.325Z,0
2018-03-04T04:52:16.706Z,0
2018-03-04T04:53:18.093Z,0
2018-03-04T04:54:19.485Z,0
2018-03-04T04:55:20.859Z,0
2018-03-04T04:56:22.239Z,0
2018-03-04T04:57:23.621Z,0
2018-03-04T04:58:25.004Z,0
2018-03-04T04:59:26.387Z,0
2018-03-04T05:00:27.770Z,0
2018-03-04T05:01:29.147Z,0
2018-03-04T05:02:30.531Z,0
2018-03-04T05:03:31.913Z,0
2018-03-04T05:04:33.293Z,0
2018-03-04T05:05:34.677Z,0
2018-03-04T05:06:36.058Z,0
2018-03-04T05:07:37.441Z,0
2018-03-04T05:08:38.818Z,0
2018-03-04T05:09:40.201Z,0
2018-03-04T05:10:41.581Z,0
2018-03-04T05:11:42.963Z,0
2018-03-04T05:12:44.347Z,0
2018-03-04T05:13:45.729Z,0
2018-03-04T05:14:47.115Z,0
2018-03-04T05:15:48.498Z,0
2018-03-04T05:16:49.882Z,0
2018-03-04T05:17:51.261Z,0
2018-03-04T05:18:52.645Z,0
2018-03-04T05:19:54.027Z,0
2018-03-04T05:20:55.410Z,0
2018-03-04T05:21:56.791Z,0
2018-03-04T05:22:58.169Z,0
2018-03-04T05:23:59.548Z,0
2018-03-04T05:25:00.927Z,0
2018-03-04T05:26:02.309Z,0
2018-03-04T05:27:03.691Z,0
2018-03-04T05:28:05.071Z,0
2018-03-04T05:29:06.455Z,0
2018-03-04T05:30:07.836Z,0
2018-03-04T05:31:09.229Z,0
2018-03-04T05:32:10.602Z,0
2018-03-04T05:33:11.979Z,0
2018-03-04T05:34:13.363Z,0
2018-03-04T05:35:14.744Z,0
2018-03-04T05:36:16.129Z,0
2018-03-04T05:37:17.515Z,0
2018-03-04T05:38:18.900Z,0
2018-03-04T05:39:20.291Z,0
2018-03-04T05:40:21.770Z,0
2018-03-04T05:41:23.168Z,0
2018-03-04T05:42:24.551Z,0
2018-03-04T05:43:25.932Z,0
2018-03-04T05:44:27.313Z,0
2018-03-04T05:45:28.692Z,0
2018-03-04T05:46:30.074Z,0
2018-03-04T05:47:31.452Z,0
2018-03-04T05:48:32.837Z,0
2018-03-04T05:49:34.217Z,0
2018-03-04T05:50:35.600Z,0
2018-03-04T05:51:36.979Z,0
2018-03-04T05:52:38.359Z,0
2018-03-04T05:53:39.738Z,0
2018-03-04T05:54:41.120Z,0
2018-03-04T05:55:42.508Z,0
2018-03-04T05:56:43.921Z,0
2018-03-04T05:57:45.309Z,0
2018-03-04T05:58:46.691Z,0
2018-03-04T05:59:48.067Z,0
2018-03-04T06:00:49.463Z,0
2018-03-04T06:01:50.842Z,0
2018-03-04T06:02:52.230Z,0
2018-03-04T06:03:53.619Z,0
2018-03-04T06:04:55.001Z,0
2018-03-04T06:05:56.383Z,0
2018-03-04T06:06:57.762Z,0
2018-03-04T06:07:59.148Z,0
2018-03-04T06:09:00.527Z,0
2018-03-04T06:10:01.914Z,0
2018-03-04T06:11:03.296Z,0
2018-03-04T06:12:04.678Z,0
2018-03-04T06:13:06.063Z,0
2018-03-04T06:14:07.442Z,0
2018-03-04T06:15:08.821Z,0
2018-03-04T06:16:10.204Z,0
2018-03-04T06:17:11.588Z,0
2018-03-04T06:18:12.979Z,0
2018-03-04T06:19:14.364Z,5
2018-03-04T06:20:15.745Z,5
2018-03-04T06:21:17.126Z,5
2018-03-04T06:22:18.509Z,5
2018-03-04T06:23:19.892Z,5
2018-03-04T06:24:21.280Z,5
2018-03-04T06:25:22.662Z,5
2018-03-04T06:26:24.049Z,5
2018-03-04T06:27:25.423Z,5
2018-03-04T06:28:26.804Z,5
2018-03-04T06:29:28.195Z,5
2018-03-04T06:30:29.589Z,5
2018-03-04T06:31:31.024Z,5
2018-03-04T06:32:32.497Z,11
2018-03-04T06:33:33.883Z,11
2018-03-04T06:34:35.272Z,11
2018-03-04T06:35:36.655Z,11
2018-03-04T06:36:38.041Z,11
2018-03-04T06:37:39.426Z,11
2018-03-04T06:38:40.812Z,11
2018-03-04T06:39:42.195Z,16
2018-03-04T06:40:43.581Z,16
2018-03-04T06:41:44.969Z,16
2018-03-04T06:42:46.351Z,16
2018-03-04T06:43:47.735Z,16
2018-03-04T06:44:49.121Z,16
2018-03-04T06:45:50.513Z,16
2018-03-04T06:46:51.897Z,16
2018-03-04T06:47:53.281Z,16
2018-03-04T06:48:54.664Z,16
2018-03-04T06:49:56.051Z,16
2018-03-04T06:50:57.436Z,16
2018-03-04T06:51:58.820Z,22
2018-03-04T06:53:00.207Z,22
2018-03-04T06:54:01.596Z,22
2018-03-04T06:55:02.985Z,22
2018-03-04T06:56:04.367Z,28
2018-03-04T06:57:05.753Z,28
2018-03-04T06:58:07.135Z,28
2018-03-04T06:59:08.520Z,22
2018-03-04T07:00:09.906Z,22
2018-03-04T07:01:11.293Z,22
2018-03-04T07:02:12.687Z,22
2018-03-04T07:03:14.072Z,22
2018-03-04T07:04:15.457Z,22
2018-03-04T07:05:16.842Z,28
2018-03-04T07:06:18.235Z,28
2018-03-04T07:07:19.613Z,28
2018-03-04T07:08:20.997Z,28
2018-03-04T07:09:22.386Z,28
2018-03-04T07:10:23.768Z,28
2018-03-04T07:11:25.152Z,28
2018-03-04T07:12:26.537Z,28
2018-03-04T07:13:27.933Z,33
2018-03-04T07:14:29.317Z,33
2018-03-04T07:15:30.704Z,33
2018-03-04T07:16:32.089Z,33
2018-03-04T07:17:33.473Z,33
2018-03-04T07:18:34.857Z,33
2018-03-04T07:19:36.239Z,33
2018-03-04T07:20:37.637Z,33
2018-03-04T07:21:39.025Z,33
2018-03-04T07:22:40.408Z,33
2018-03-04T07:23:41.819Z,39
2018-03-04T07:24:43.257Z,39
2018-03-04T07:25:44.642Z,39
2018-03-04T07:26:46.028Z,39
2018-03-04T07:27:47.414Z,39
2018-03-04T07:28:48.802Z,39
2018-03-04T07:29:50.188Z,45
2018-03-04T07:30:51.576Z,50
2018-03-04T07:31:52.962Z,50
2018-03-04T07:32:54.350Z,50
2018-03-04T07:33:55.735Z,56
2018-03-04T07:34:57.120Z,61
2018-03-04T07:35:58.509Z,61
2018-03-04T07:36:59.895Z,61
2018-03-04T07:38:01.285Z,61
2018-03-04T07:39:02.666Z,61
2018-03-04T07:40:04.112Z,56
2018-03-04T07:41:05.501Z,56
2018-03-04T07:42:06.890Z,61
2018-03-04T07:43:08.276Z,61
2018-03-04T07:44:09.661Z,56
2018-03-04T07:45:11.050Z,50
2018-03-04T07:46:12.435Z,56
2018-03-04T07:47:13.837Z,56
2018-03-04T07:48:15.211Z,56
2018-03-04T07:49:16.592Z,50
2018-03-04T07:50:17.989Z,45
2018-03-04T07:51:19.374Z,45
2018-03-04T07:52:20.759Z,50
2018-03-04T07:53:22.144Z,50
2018-03-04T07:54:23.527Z,50
2018-03-04T07:55:24.915Z,50
2018-03-04T07:56:26.300Z,61
2018-03-04T07:57:27.694Z,61
2018-03-04T07:58:29.084Z,61
2018-03-04T07:59:30.476Z,61
2018-03-04T08:00:31.933Z,67
2018-03-04T08:01:33.319Z,67
2018-03-04T08:02:34.705Z,67
2018-03-04T08:03:36.092Z,73
2018-03-04T08:04:37.479Z,73
2018-03-04T08:05:38.872Z,78
2018-03-04T08:06:40.260Z,84
2018-03-04T08:07:41.645Z,84
2018-03-04T08:08:43.030Z,95
2018-03-04T08:09:44.420Z,101
2018-03-04T08:10:45.808Z,106
2018-03-04T08:11:47.194Z,112
2018-03-04T08:12:48.584Z,118
2018-03-04T08:13:49.978Z,112
2018-03-04T08:14:51.414Z,90
2018-03-04T08:15:52.953Z,84
2018-03-04T08:16:54.413Z,84
2018-03-04T08:17:55.850Z,84
2018-03-04T08:18:57.237Z,84
2018-03-04T08:19:58.633Z,84
2018-03-04T08:21:00.020Z,84
2018-03-04T08:22:01.404Z,84
2018-03-04T08:23:02.794Z,73
2018-03-04T08:24:04.180Z,67
2018-03-04T08:25:05.570Z,73
2018-03-04T08:26:06.979Z,78
2018-03-04T08:27:08.389Z,84
2018-03-04T08:28:09.776Z,101
2018-03-04T08:29:11.192Z,106
2018-03-04T08:30:12.576Z,112
2018-03-04T08:31:13.968Z,118
2018-03-04T08:32:15.352Z,118
2018-03-04T08:33:16.741Z,123
2018-03-04T08:34:18.154Z,123
2018-03-04T08:35:19.546Z,118
2018-03-04T08:36:20.932Z,129
2018-03-04T08:37:22.318Z,129
2018-03-04T08:38:23.725Z,135
2018-03-04T08:39:25.134Z,135
2018-03-04T08:40:26.521Z,129
2018-03-04T08:41:27.924Z,118
2018-03-04T08:42:29.316Z,112
2018-03-04T08:43:30.728Z,112
2018-03-04T08:44:32.119Z,118
2018-03-04T08:45:33.554Z,123
2018-03-04T08:46:34.912Z,118
2018-03-04T08:47:36.303Z,112
2018-03-04T08:48:37.699Z,101
2018-03-04T08:49:39.242Z,101
2018-03-04T08:50:40.645Z,101
2018-03-04T08:51:42.031Z,101
2018-03-04T08:52:43.421Z,106
2018-03-04T08:53:44.810Z,106
2018-03-04T08:54:46.204Z,106
2018-03-04T08:55:47.587Z,106
2018-03-04T08:56:48.980Z,118
2018-03-04T08:57:50.371Z,123
2018-03-04T08:58:51.777Z,129
2018-03-04T08:59:53.164Z,135
2018-03-04T09:00:54.620Z,140
2018-03-04T09:01:56.017Z,95
2018-03-04T09:02:57.413Z,140
2018-03-04T09:03:58.829Z,140
2018-03-04T09:05:00.335Z,146
2018-03-04T09:06:01.806Z,157
2018-03-04T09:07:03.204Z,112
2018-03-04T09:08:04.592Z,168
2018-03-04T09:09:05.986Z,196
2018-03-04T09:10:07.376Z,219
2018-03-04T09:11:08.788Z,241
2018-03-04T09:12:10.165Z,185
2018-03-04T09:13:11.553Z,241
2018-03-04T09:14:12.939Z,241
2018-03-04T09:15:14.339Z,135
2018-03-04T09:16:15.730Z,123
2018-03-04T09:17:17.122Z,90
2018-03-04T09:18:18.510Z,73
2018-03-04T09:19:19.903Z,61
2018-03-04T09:20:21.289Z,61
2018-03-04T09:21:22.676Z,67
2018-03-04T09:22:24.065Z,78
2018-03-04T09:23:25.740Z,95
2018-03-04T09:24:27.107Z,106
2018-03-04T09:25:28.501Z,118
2018-03-04T09:26:30.214Z,129
2018-03-04T09:27:31.603Z,146
2018-03-04T09:28:33.003Z,185
2018-03-04T09:29:34.396Z,253
2018-03-04T09:30:35.782Z,230
2018-03-04T09:31:37.171Z,230
2018-03-04T09:32:38.566Z,298
2018-03-04T09:33:39.989Z,281
2018-03-04T09:34:41.381Z,264
2018-03-04T09:35:42.781Z,225
2018-03-04T09:36:44.209Z,337
2018-03-04T09:37:45.600Z,281
2018-03-04T09:38:46.999Z,275
2018-03-04T09:39:48.494Z,315
2018-03-04T09:40:49.886Z,399
2018-03-04T09:41:51.285Z,478
2018-03-04T09:42:52.673Z,1732
2018-03-04T09:43:54.065Z,208
2018-03-04T09:44:55.457Z,191
2018-03-04T09:45:56.849Z,247
2018-03-04T09:46:58.240Z,421
2018-03-04T09:47:59.634Z,1912
2018-03-04T09:49:01.028Z,1805
2018-03-04T09:50:02.431Z,1873
2018-03-04T09:51:03.831Z,1839
2018-03-04T09:52:05.236Z,1963
2018-03-04T09:53:06.634Z,2013
2018-03-04T09:54:08.035Z,1648
2018-03-04T09:55:09.429Z,2064
2018-03-04T09:56:10.870Z,2120
2018-03-04T09:57:12.317Z,2221
2018-03-04T09:58:13.718Z,2131
2018-03-04T09:59:15.123Z,2030
2018-03-04T10:00:16.526Z,2120
2018-03-04T10:01:17.925Z,697
2018-03-04T10:02:19.318Z,191
2018-03-04T10:03:20.709Z,303
2018-03-04T10:04:22.108Z,270
2018-03-04T10:05:23.812Z,185
2018-03-04T10:06:25.494Z,849
2018-03-04T10:07:26.877Z,219
2018-03-04T10:08:28.276Z,562
2018-03-04T10:09:29.690Z,781
2018-03-04T10:10:31.085Z,213
2018-03-04T10:11:32.486Z,2013
2018-03-04T10:12:33.887Z,2491
2018-03-04T10:13:35.289Z,2542
2018-03-04T10:14:36.690Z,1468
2018-03-04T10:15:38.094Z,2655
2018-03-04T10:16:39.494Z,2604
2018-03-04T10:17:40.984Z,2581
2018-03-04T10:18:42.303Z,2705
2018-03-04T10:19:43.700Z,2728
2018-03-04T10:20:45.113Z,2700
2018-03-04T10:21:46.571Z,2626
2018-03-04T10:22:48.333Z,2941
2018-03-04T10:23:49.734Z,2806
2018-03-04T10:24:51.130Z,2761
2018-03-04T10:25:52.538Z,2598
2018-03-04T10:26:53.938Z,2671
2018-03-04T10:27:55.341Z,933
2018-03-04T10:28:56.748Z,1541
2018-03-04T10:29:58.154Z,2840
2018-03-04T10:30:59.570Z,1496
2018-03-04T10:32:00.972Z,1333
2018-03-04T10:33:02.592Z,213
2018-03-04T10:34:03.725Z,2008
2018-03-04T10:35:05.162Z,2171
2018-03-04T10:36:06.564Z,2790
2018-03-04T10:37:07.974Z,2711
2018-03-04T10:38:09.391Z,320
2018-03-04T10:39:10.794Z,579
2018-03-04T10:40:12.247Z,450
2018-03-04T10:41:13.647Z,1209
2018-03-04T10:42:15.049Z,343
2018-03-04T10:43:16.793Z,2047
2018-03-04T10:44:18.531Z,2666
2018-03-04T10:45:19.967Z,388
2018-03-04T10:46:21.367Z,815
2018-03-04T10:47:22.845Z,1591
2018-03-04T10:48:24.272Z,2756
2018-03-04T10:49:25.675Z,2761
2018-03-04T10:50:27.077Z,2812
2018-03-04T10:51:28.495Z,2109
2018-03-04T10:52:29.916Z,1766
2018-03-04T10:53:31.313Z,2683
2018-03-04T10:54:32.726Z,2705
2018-03-04T10:55:34.157Z,2660
2018-03-04T10:56:35.524Z,2846
2018-03-04T10:57:37.334Z,2790
2018-03-04T10:58:38.789Z,2773
2018-03-04T10:59:40.142Z,2835
2018-03-04T11:00:41.562Z,2840
2018-03-04T11:01:42.962Z,2829
2018-03-04T11:02:44.377Z,2891
2018-03-04T11:03:45.780Z,2880
2018-03-04T11:04:47.187Z,2565
2018-03-04T11:05:48.593Z,2728
2018-03-04T11:06:50.009Z,2874
2018-03-04T11:07:51.416Z,2863
2018-03-04T11:08:52.824Z,2761
2018-03-04T11:09:54.286Z,2716
2018-03-04T11:10:55.727Z,2683
2018-03-04T11:11:57.301Z,2255
2018-03-04T11:12:58.716Z,1366
2018-03-04T11:14:00.112Z,916
2018-03-04T11:15:01.516Z,720
2018-03-04T11:16:02.917Z,534
2018-03-04T11:17:04.319Z,483
2018-03-04T11:18:05.718Z,495
2018-03-04T11:19:07.122Z,495
2018-03-04T11:20:08.528Z,483
2018-03-04T11:21:09.929Z,483
2018-03-04T11:22:11.330Z,472
2018-03-04T11:23:12.733Z,472
2018-03-04T11:24:14.169Z,472
2018-03-04T11:25:15.617Z,466
2018-03-04T11:26:17.749Z,472
2018-03-04T11:27:19.152Z,466
2018-03-04T11:28:20.547Z,466
2018-03-04T11:29:22.014Z,466
2018-03-04T11:30:23.528Z,461
2018-03-04T11:31:24.947Z,461
2018-03-04T11:32:26.353Z,466
2018-03-04T11:33:27.752Z,461
2018-03-04T11:34:29.158Z,461
2018-03-04T11:35:30.561Z,455
2018-03-04T11:36:31.956Z,455
2018-03-04T11:37:33.411Z,455
2018-03-04T11:38:34.823Z,455
2018-03-04T11:39:36.223Z,455
2018-03-04T11:40:37.631Z,450
2018-03-04T11:41:39.497Z,450
2018-03-04T11:42:40.929Z,450
2018-03-04T11:43:42.318Z,450
2018-03-04T11:44:43.719Z,444
2018-03-04T11:45:45.120Z,450
2018-03-04T11:46:46.521Z,450
2018-03-04T11:47:47.920Z,444
2018-03-04T11:48:49.337Z,438
2018-03-04T11:49:50.738Z,433
2018-03-04T11:50:52.138Z,433
2018-03-04T11:51:53.537Z,433
2018-03-04T11:52:54.935Z,433
2018-03-04T11:53:57.185Z,433
2018-03-04T11:54:58.698Z,427
2018-03-04T11:56:00.223Z,427
2018-03-04T11:57:01.618Z,433
2018-03-04T11:58:03.016Z,427
2018-03-04T11:59:04.433Z,427
2018-03-04T12:00:05.834Z,427
2018-03-04T12:01:07.230Z,427
2018-03-04T12:02:08.637Z,421
2018-03-04T12:03:10.034Z,421
2018-03-04T12:04:11.446Z,416
2018-03-04T12:05:12.845Z,416
2018-03-04T12:06:14.244Z,410
2018-03-04T12:07:15.645Z,416
2018-03-04T12:08:17.046Z,410
2018-03-04T12:09:18.517Z,405
2018-03-04T12:10:20.016Z,410
2018-03-04T12:11:21.417Z,405
2018-03-04T12:12:22.817Z,405
2018-03-04T12:13:24.211Z,399
2018-03-04T12:14:25.611Z,399
2018-03-04T12:15:27.030Z,405
2018-03-04T12:16:28.455Z,410
2018-03-04T12:17:29.864Z,410
2018-03-04T12:18:31.262Z,388
2018-03-04T12:19:32.661Z,388
2018-03-04T12:20:34.061Z,382
2018-03-04T12:21:35.460Z,376
2018-03-04T12:22:36.859Z,360
2018-03-04T12:23:38.261Z,343
2018-03-04T12:24:39.669Z,382
2018-03-04T12:25:41.063Z,393
2018-03-04T12:26:42.674Z,393
2018-03-04T12:27:44.173Z,393
2018-03-04T12:28:45.568Z,388
2018-03-04T12:29:46.972Z,371
2018-03-04T12:30:48.504Z,371
2018-03-04T12:31:49.955Z,371
2018-03-04T12:32:51.353Z,360
2018-03-04T12:33:52.846Z,343
2018-03-04T12:34:54.242Z,331
2018-03-04T12:35:57.094Z,326
2018-03-04T12:36:58.457Z,286
2018-03-04T12:37:59.880Z,286
2018-03-04T12:39:01.376Z,298
2018-03-04T12:40:02.829Z,281
2018-03-04T12:41:04.280Z,270
2018-03-04T12:42:05.897Z,298
2018-03-04T12:43:07.421Z,326
2018-03-04T12:44:08.821Z,354
2018-03-04T12:45:10.219Z,371
2018-03-04T12:46:11.641Z,348
2018-03-04T12:47:13.058Z,326
2018-03-04T12:48:14.467Z,315
2018-03-04T12:49:15.862Z,298
2018-03-04T12:50:17.263Z,303
2018-03-04T12:51:18.665Z,298
2018-03-04T12:52:20.061Z,298
2018-03-04T12:53:21.462Z,315
2018-03-04T12:54:22.880Z,326
2018-03-04T12:55:24.275Z,331
2018-03-04T12:56:25.674Z,337
2018-03-04T12:57:27.083Z,326
2018-03-04T12:58:28.470Z,286
2018-03-04T12:59:29.943Z,303
2018-03-04T13:00:31.386Z,281
2018-03-04T13:01:33.026Z,264
2018-03-04T13:02:34.468Z,258
2018-03-04T13:03:35.862Z,247
2018-03-04T13:04:37.257Z,247
2018-03-04T13:05:38.657Z,236
2018-03-04T13:06:40.063Z,230
2018-03-04T13:07:41.463Z,230
2018-03-04T13:08:43.813Z,230
2018-03-04T13:09:45.216Z,225
2018-03-04T13:10:46.612Z,225
2018-03-04T13:11:48.017Z,219
2018-03-04T13:12:49.407Z,219
2018-03-04T13:13:50.804Z,213
2018-03-04T13:14:52.208Z,213
2018-03-04T13:15:53.622Z,213
2018-03-04T13:16:55.034Z,208
2018-03-04T13:17:56.434Z,208
2018-03-04T13:18:57.827Z,202
2018-03-04T13:19:59.259Z,196
2018-03-04T13:21:01.534Z,191
2018-03-04T13:22:02.941Z,185
2018-03-04T13:23:04.366Z,180
2018-03-04T13:24:05.768Z,180
2018-03-04T13:25:07.174Z,174
2018-03-04T13:26:08.567Z,174
2018-03-04T13:27:09.994Z,168
2018-03-04T13:28:11.389Z,163
2018-03-04T13:29:12.790Z,163
2018-03-04T13:30:14.185Z,163
2018-03-04T13:31:15.583Z,163
2018-03-04T13:32:16.976Z,168
2018-03-04T13:33:18.373Z,174
2018-03-04T13:34:19.790Z,174
2018-03-04T13:35:21.168Z,185
2018-03-04T13:36:22.608Z,191
2018-03-04T13:37:24.003Z,191
2018-03-04T13:38:25.399Z,185
2018-03-04T13:39:26.791Z,180
2018-03-04T13:40:28.187Z,185
2018-03-04T13:41:29.672Z,185
2018-03-04T13:42:31.085Z,180
2018-03-04T13:43:32.535Z,185
2018-03-04T13:44:33.928Z,185
2018-03-04T13:45:35.418Z,191
2018-03-04T13:46:36.816Z,185
2018-03-04T13:47:38.213Z,185
2018-03-04T13:48:39.611Z,185
2018-03-04T13:49:41.018Z,185
2018-03-04T13:50:42.420Z,185
2018-03-04T13:51:43.813Z,185
2018-03-04T13:52:45.211Z,185
2018-03-04T13:53:46.607Z,191
2018-03-04T13:54:48.005Z,191
2018-03-04T13:55:49.404Z,191
2018-03-04T13:56:50.802Z,185
2018-03-04T13:57:52.199Z,180
2018-03-04T13:58:53.593Z,174
2018-03-04T13:59:55.006Z,174
2018-03-04T14:00:56.402Z,168
2018-03-04T14:01:57.821Z,168
2018-03-04T14:02:59.189Z,168
2018-03-04T14:04:00.585Z,168
2018-03-04T14:05:01.983Z,168
2018-03-04T14:06:03.380Z,174
2018-03-04T14:07:04.794Z,180
2018-03-04T14:08:06.356Z,185
2018-03-04T14:09:07.735Z,191
2018-03-04T14:10:09.166Z,191
2018-03-04T14:11:10.565Z,196
2018-03-04T14:12:11.960Z,185
2018-03-04T14:13:13.354Z,180
2018-03-04T14:14:14.753Z,174
2018-03-04T14:15:16.149Z,174
2018-03-04T14:16:17.543Z,168
2018-03-04T14:17:18.943Z,163
2018-03-04T14:18:20.340Z,163
2018-03-04T14:19:21.743Z,157
2018-03-04T14:20:23.138Z,157
2018-03-04T14:21:24.531Z,151
2018-03-04T14:22:25.927Z,146
2018-03-04T14:23:27.323Z,140
2018-03-04T14:24:28.739Z,135
2018-03-04T14:25:30.153Z,129
2018-03-04T14:26:31.561Z,123
2018-03-04T14:27:32.957Z,123
2018-03-04T14:28:34.354Z,123
2018-03-04T14:29:35.749Z,123
2018-03-04T14:30:37.147Z,123
2018-03-04T14:31:38.544Z,123
2018-03-04T14:32:39.942Z,123
2018-03-04T14:33:41.380Z,129
2018-03-04T14:34:42.900Z,129